Larissa , Thessalia , Greece
39° 38' 00"N, 22° 25' 00"E, Elevation 263 ft.
Χειμερινή Time

Hourly observations for the last 48 hours

Date

Time

Temperature (°C) Humi-
dity
(%)
Wind
(kmph)
Pressure Rain (mm) Sun
(W/m2)
UV ET
(mm)
Air Dew 6 Hour 1 Hr 3 Hr 6 Hr Day
Alt
(in)
Sea
Level
(mb)
Max Min
18 17:00 23.6 3.5 27 NNE 11 G 27 29.64 1003.7 0.00 684 0.0 2.743
18 16:00 22.7 3.2 28 NNE 5 G 11 29.63 1003.5 0.00 293 0.0 2.489
18 15:00 23.1 3.6 23.4 17.0 28 NNE 5 G 11 29.64 1003.8 0.00 926 0.0 2.083
18 14:00 22.5 3.6 29 NNE 7 G 22 29.64 1003.8 0.00 954 0.0 1.626
18 13:00 22.5 4.1 30 NNE 6 G 27 29.65 1004.0 0.00 356 0.0 1.321
18 12:00 20.3 4.4 35 N 4 G 9 29.65 1004.0 0.00 226 0.0 1.067
18 11:00 20.2 5.1 37 NNE 5 G 9 29.64 1003.8 0.00 236 0.0 0.787
18 10:00 18.8 5.9 43 NNE 5 G 11 29.63 1003.4 0.00 247 0.0 0.610
18 09:00 17.0 6.8 17.4 14.5 51 N 2 G 4 29.62 1003.0 0.00 325 0.0 0.483
18 08:00 15.1 6.4 56 N 1 G 4 29.59 1002.1 0.00 142 0.0 0.432
18 07:00 15.3 6.3 55 N 2 G 6 29.57 1001.4 0.00 8 0.0 0.406
18 06:00 15.8 6.0 52 N 4 G 8 29.56 1000.9 0.00 0 0.0 0.356
18 05:00 16.0 6.2 52 N 4 G 9 29.55 1000.6 0.00 0 0.0 0.305
18 04:00 16.8 6.3 50 N 3 G 8 29.52 999.8 0.00 0 0.0 0.229
18 03:00 17.4 6.9 22.7 17.4 50 NNE 6 G 12 29.52 999.7 0.00 0 0.0 0.152
18 02:00 17.8 7.5 51 NNE 7 G 12 29.51 999.3 0.00 0 0.0 0.076
18 01:00 18.5 7.9 50 NNE 4 G 16 29.49 998.7 0.00 0 0.0 0.000
18 00:00 20.1 6.0 40 NNE 6 G 16 29.47 998.1 0.00 0 0.0 3.277
17 23:00 21.2 7.4 41 NNE 1 G 12 29.46 997.7 0.00 0 0.0 3.175
17 22:00 22.4 7.8 39 NNE 7 G 20 29.44 997.1 0.00 0 0.0 3.048
17 21:00 22.7 9.5 28.3 22.7 43 N 10 G 17 29.42 996.1 0.00 0 0.0 2.972
17 20:00 24.4 9.2 38 N 8 G 16 29.40 995.7 0.00 11 0.0 2.819
17 19:00 26.3 8.8 33 N 12 G 25 29.39 995.4 0.00 91 0.0 2.591
17 18:00 26.9 7.9 30 N 10 G 20 29.39 995.4 0.00 276 0.0 2.311
17 17:00 27.5 8.4 30 N 7 G 24 29.41 995.9 0.00 209 0.0 1.905
17 16:00 27.4 8.3 30 N 7 G 20 29.43 996.8 0.00 865 0.0 1.499
17 15:00 25.9 9.7 25.9 19.2 36 N 5 G 11 29.46 997.7 0.00 403 0.0 1.245
17 14:00 24.2 11.2 44 N 2 G 6 29.49 998.7 0.00 406 0.0 1.067
17 13:00 23.3 12.3 50 NNE 0 G 4 29.51 999.3 0.00 409 0.0 0.889
17 12:00 21.9 11.9 53 N 2 G 3 29.53 1000.1 0.00 268 0.0 0.762
17 11:00 21.0 11.6 55 N 2 G 6 29.55 1000.7 0.00 184 0.0 0.660
17 10:00 20.2 11.9 59 NNE 3 G 6 29.56 1000.9 0.00 169 0.0 0.559
17 09:00 19.6 12.1 21.8 17.7 62 NNE 3 G 8 29.57 1001.3 0.00 240 0.0 0.483
17 08:00 18.1 10.7 62 N 0 G 1 29.56 1001.0 0.00 84 0.0 0.457
17 07:00 18.2 10.6 61 N 0 G 6 29.57 1001.3 0.00 0 0.0 0.432
17 06:00 19.6 10.1 54 N 0 G 1 29.58 1001.9 0.00 0 0.0 0.381
17 05:00 19.5 9.7 53 N 1 G 6 29.60 1002.4 0.00 0 0.0 0.330
17 04:00 20.2 9.5 50 N 2 G 4 29.60 1002.4 0.00 0 0.0 0.279
17 03:00 21.8 9.0 24.8 21.8 44 N 3 G 6 29.61 1002.6 0.00 0 0.0 0.203
17 02:00 22.5 7.9 39 NNE 3 G 9 29.64 1003.9 0.00 0 0.0 0.102
17 01:00 23.1 6.8 35 N 4 G 12 29.65 1004.1 0.00 0 0.0 0.000
17 00:00 22.2 9.4 44 N 0 G 3 29.64 1003.8 0.00 0 0.0 3.607
16 23:00 23.1 10.5 45 N 1 G 4 29.64 1003.9 0.00 0 0.0 3.531
16 22:00 24.6 8.1 35 NNE 1 G 4 29.64 1003.9 0.00 0 0.0 3.454
16 21:00 24.8 9.6 30.7 24.8 38 NNE 7 G 14 29.63 1003.4 0.00 0 0.0 3.353
16 20:00 25.8 9.2 35 NNE 2 G 6 29.63 1003.4 0.00 0 0.0 3.302
16 19:00 26.6 8.5 32 N 7 G 12 29.65 1003.9 0.00 48 0.0 3.150
16 18:00 28.7 8.4 28 N 8 G 17 29.65 1004.0 0.00 84 0.0 2.997

Data generated by WxSolution Version 1.8.4.2, Build 2009.03.29.